createdAt,value
2022-12-01T00:03:12.940Z,16.849498327759196
2022-12-01T00:14:13.500Z,17.39799331103679
2022-12-01T00:20:42.812Z,19.648829431438127
2022-12-01T00:27:10.816Z,18.040133779264213
2022-12-01T00:33:38.550Z,17.70903010033445
2022-12-01T00:40:07.501Z,16.160535117056856
2022-12-01T00:48:15.634Z,15.357859531772576
2022-12-01T00:54:44.278Z,15.719063545150501
2022-12-01T01:06:44.042Z,16.441471571906355
2022-12-01T01:17:13.943Z,15.481605351170568
2022-12-01T01:23:42.028Z,18.57190635451505
2022-12-01T01:30:09.439Z,18.819397993311036
2022-12-01T01:36:36.559Z,18.665551839464882
2022-12-01T01:43:21.845Z,21.06354515050167
2022-12-01T01:50:18.794Z,21.187290969899667
2022-12-01T02:04:51.903Z,23.2809364548495
2022-12-01T02:12:08.221Z,24.39464882943144
2022-12-01T02:25:47.552Z,24.34448160535117
2022-12-01T02:37:33.229Z,19.622073578595316
2022-12-01T02:44:00.269Z,20.207357859531772
2022-12-01T02:50:26.978Z,20.307692307692307
2022-12-01T02:56:54.552Z,19.48829431438127
2022-12-01T03:03:21.746Z,18.956521739130434
2022-12-01T03:09:49.389Z,16.220735785953178
2022-12-01T03:23:45.968Z,16.82608695652174
2022-12-01T03:30:12.428Z,16.62541806020067
2022-12-01T03:48:27.375Z,15.618729096989966
2022-12-01T03:56:29.250Z,16.53846153846154
2022-12-01T04:02:56.031Z,15.806020066889632
2022-12-01T04:13:27.440Z,14.976588628762542
2022-12-01T04:19:53.593Z,16.37123745819398
2022-12-01T04:26:20.021Z,18.130434782608695
2022-12-01T04:44:31.576Z,17.846153846153847
2022-12-01T04:55:23.769Z,18.806020066889634
2022-12-01T05:01:52.779Z,17.26086956521739
2022-12-01T05:08:20.106Z,20.073578595317727
2022-12-01T05:18:09.319Z,16.896321070234112
2022-12-01T05:24:36.665Z,17.301003344481604
2022-12-01T05:31:02.957Z,17.494983277591974
2022-12-01T05:37:30.687Z,17.093645484949832
2022-12-01T05:48:03.211Z,17.5752508361204
2022-12-01T05:54:30.216Z,18.836120401337794
2022-12-01T06:03:38.450Z,16.645484949832777
2022-12-01T06:13:41.204Z,18.157190635451506
2022-12-01T06:20:07.938Z,19.066889632107024
2022-12-01T06:26:42.304Z,18.42809364548495
2022-12-01T06:33:11.410Z,15.461538461538462
2022-12-01T06:47:54.665Z,17.471571906354516
2022-12-01T06:54:22.347Z,17.806020066889634
2022-12-01T07:00:52.540Z,17.043478260869566
2022-12-01T07:07:22.535Z,14.996655518394649
2022-12-01T07:17:54.433Z,15.521739130434783
2022-12-01T07:24:23.249Z,15.993311036789297
2022-12-01T07:30:51.500Z,17.06020066889632
2022-12-01T07:37:19.115Z,17.42809364548495
2022-12-01T07:43:47.907Z,17.100334448160535
2022-12-01T07:50:15.801Z,16.548494983277592
2022-12-01T07:56:44.550Z,16.387959866220736
2022-12-01T08:03:13.033Z,15.585284280936454
2022-12-01T08:11:41.646Z,16.103678929765888
2022-12-01T08:23:07.189Z,16.17056856187291
2022-12-01T08:44:15.473Z,15.792642140468228
2022-12-01T08:57:05.034Z,13.240802675585284
2022-12-01T09:03:34.679Z,14.193979933110368
2022-12-01T09:10:03.459Z,12.508361204013378
2022-12-01T09:16:33.017Z,12.719063545150501
2022-12-01T09:23:02.190Z,11.889632107023411
2022-12-01T09:41:27.182Z,14.719063545150501
2022-12-01T09:52:00.188Z,11.953177257525084
2022-12-01T10:03:10.332Z,14.133779264214047
2022-12-01T10:09:39.875Z,15.157190635451505
2022-12-01T10:16:08.698Z,17.585284280936456
2022-12-01T10:28:07.749Z,14.966555183946488
2022-12-01T10:42:56.143Z,14.889632107023411
2022-12-01T10:49:24.613Z,14.37458193979933
2022-12-01T10:59:12.787Z,13.638795986622073
2022-12-01T11:05:41.826Z,12.48494983277592
2022-12-01T11:12:10.559Z,12.267558528428093
2022-12-01T11:28:06.068Z,15.060200668896321
2022-12-01T11:38:27.188Z,13.19732441471572
2022-12-01T11:49:25.712Z,11.82943143812709
2022-12-01T11:55:54.572Z,13.361204013377927
2022-12-01T12:02:23.730Z,13.7123745819398
2022-12-01T12:14:50.629Z,10.391304347826088
2022-12-01T12:27:25.828Z,11.37458193979933
2022-12-01T12:33:55.004Z,11.963210702341136
2022-12-01T12:40:24.060Z,12.638795986622073
2022-12-01T12:46:52.638Z,12.414715719063546
2022-12-01T12:53:21.626Z,10.82943143812709
2022-12-01T13:10:33.828Z,11.34448160535117
2022-12-01T13:18:06.596Z,11.217391304347826
2022-12-01T13:24:35.728Z,11.648829431438127
2022-12-01T13:31:04.378Z,11.568561872909699
2022-12-01T13:37:32.554Z,11.23076923076923
2022-12-01T13:43:59.971Z,11.785953177257525
2022-12-01T13:50:29.991Z,13.856187290969899
2022-12-01T14:15:55.371Z,17.193979933110366
2022-12-01T14:22:23.969Z,16.622073578595316
2022-12-01T14:36:39.556Z,15.284280936454849
2022-12-01T14:43:15.113Z,13.725752508361204
2022-12-01T14:52:00.262Z,16.384615384615383
2022-12-01T14:58:28.041Z,15.361204013377927
2022-12-01T15:06:05.052Z,18.36454849498328
2022-12-01T15:18:55.784Z,18.48160535117057
2022-12-01T15:29:49.803Z,17.923076923076923
2022-12-01T15:36:17.967Z,17.224080267558527
2022-12-01T15:42:46.169Z,17.59197324414716
2022-12-01T15:49:13.013Z,16.34448160535117
2022-12-01T16:03:30.454Z,20.555183946488295
2022-12-01T16:11:04.025Z,19.040133779264213
2022-12-01T16:17:31.679Z,18.247491638795985
2022-12-01T16:23:58.912Z,19.0
2022-12-01T16:36:40.771Z,18.755852842809364
2022-12-01T16:43:08.543Z,16.983277591973245
2022-12-01T16:50:03.456Z,12.68561872909699
2022-12-01T17:00:05.536Z,11.702341137123746
2022-12-01T17:06:34.426Z,11.421404682274247
2022-12-01T17:13:01.222Z,10.568561872909699
2022-12-01T17:22:12.308Z,11.23076923076923
2022-12-01T17:30:03.536Z,8.331103678929766
2022-12-01T17:36:35.725Z,7.2040133779264215
2022-12-01T17:46:10.451Z,9.25418060200669
2022-12-01T17:52:44.926Z,8.698996655518394
2022-12-01T17:59:13.095Z,9.387959866220736
2022-12-01T18:05:42.967Z,9.645484949832776
2022-12-01T18:15:13.246Z,9.642140468227424
2022-12-01T18:24:32.532Z,10.68561872909699
2022-12-01T18:31:04.406Z,9.779264214046822
2022-12-01T18:37:38.285Z,11.719063545150501
2022-12-01T18:44:09.940Z,10.08361204013378
2022-12-01T18:56:15.376Z,10.622073578595318
2022-12-01T19:11:30.328Z,7.20066889632107
2022-12-01T19:18:08.263Z,5.588628762541806
2022-12-01T19:24:52.980Z,6.137123745819398
2022-12-01T19:31:42.342Z,6.1003344481605355
2022-12-01T19:38:22.493Z,5.110367892976589
2022-12-01T19:44:59.953Z,7.230769230769231
2022-12-01T19:51:32.022Z,5.588628762541806
2022-12-01T19:58:02.017Z,6.411371237458194
2022-12-01T20:04:35.331Z,5.759197324414716
2022-12-01T20:11:17.639Z,8.331103678929766
2022-12-01T20:18:00.268Z,5.769230769230769
2022-12-01T20:24:34.561Z,7.297658862876254
2022-12-01T20:31:05.020Z,6.4280936454849495
2022-12-01T20:51:50.147Z,9.551839464882944
2022-12-01T20:58:19.433Z,9.936454849498327
2022-12-01T21:04:52.278Z,8.26086956521739
2022-12-01T21:17:17.447Z,10.354515050167224
2022-12-01T21:24:06.989Z,11.264214046822742
2022-12-01T21:31:49.850Z,13.665551839464882
2022-12-01T21:40:05.339Z,15.297658862876254
2022-12-01T21:56:04.980Z,15.846153846153847
2022-12-01T22:06:47.484Z,15.237458193979933
2022-12-01T22:13:27.049Z,16.448160535117058
2022-12-01T22:23:52.096Z,15.494983277591974
2022-12-01T22:34:36.165Z,16.354515050167223
2022-12-01T22:41:11.976Z,16.043478260869566
2022-12-01T22:47:41.292Z,14.946488294314381
2022-12-01T23:05:03.698Z,13.481605351170568
2022-12-01T23:14:49.210Z,14.418060200668897
2022-12-01T23:24:55.509Z,14.20401337792642
2022-12-01T23:31:26.036Z,15.33779264214047
2022-12-01T23:37:54.008Z,16.705685618729095
2022-12-01T23:51:02.298Z,16.05685618729097
